Friday, September 19, 2014
09:54 UTC
  |  Log In   |  Register Free
Airport Search:

Coffeyville Municipal Airport
(KCFV)

Coffeyville Municipal Airport Diagram
No Airport Diagram Available

FAA data valid effective September 18, 2014 - November 13, 2014 (unless otherwise noted).

 
 
 
 
 
 
 
 
 
 
 
 
 
 

Current Aviation Weather for Coffeyville Municipal Airport (KCFV)

The most recent METAR observation for KCFV was updated at: 0907
METAR Summary (Translated METAR)
KCFV
190852Z AUTO 13003KT 9SM CLR 17/17 A2998 RMK AO2 SLP146 T01720167 58005
KIDP
190855Z AUTO 00000KT 7SM CLR 17/16 A2998 RMK AO2
(10.6 nm NW from KCFV)
KPPF
190852Z AUTO 14003KT 8SM CLR 18/17 A2999 RMK AO2 SLP149 T01780172 58004
(14.6 nm NE from KCFV)
TAF
No TAF information found within 50 nm of KCFV
  Airport Weather Conditions for KCFV

 Current Weather at CFV
64° F
Fair
East winds at 4.6 mph
CFV NOAA Radar

Pressure: 29.99 in
Humidity: 93%
Wind: East at 4.6 MPH (4 KT)
Dew Point: 62.1°F
Visibility: 10.00 mi


Airport Weather Forecast for KCFV

Translated METAR and TAF for KCFV
Translated METAR for KCFV (0948 UTC 19 September 2014)
found at http://aviationweather.gov/adds/metars/
 
METAR text: KCFV 190852Z AUTO 13003KT 9SM CLR 17/17 A2998 RMK AO2 SLP146 T01720167 58005
Conditions at: KCFV (COFFEYVILLE , KS, US) observed 0852 UTC 19 September 2014
Temperature: 17.2°C (63°F)
Dewpoint: 16.7°C (62°F) [RH = 97%]
Pressure (altimeter): 29.98 inches Hg (1015.3 mb)
[Sea-level pressure: 1014.6 mb]
Winds: from the SE (130 degrees) at 3 MPH (3 knots; 1.6 m/s)
Visibility: 9 miles (14 km)
Ceiling: at least 12,000 feet AGL
Clouds: sky clear below 12,000 feet AGL
Weather: automated observation with no human augmentation;
there may or may not be significant weather present at this time
Translated TAF for KCFV

There is no translated TAF available for this airport

Find All Airport Services Find A Hotel Find A Rental Car Find A Golf Course Find A Restaurant $100 Hamburger



FBO's on the Field
FBO Company Facility Photos Services Transportation Aviation Fuel Prices: Prices include tax
Catering Weather Repair Courtesy Rental Type 100LL JetA JetA+ MOGAS 8087
 
Coffeyville Aircraft, Inc

This FBO has not yet been rated
FS:Phillips66
Last Updated: Sep-09
Login to update fuel prices
SS:
Contact Coffeyville Aircraft, IncMore FBO Information
 
Add another FBO Facility Photos Catering Weather Repair Courtesy Rental Type 100LL JetA JetA+ MOGAS 8087
Services Transportation Aviation Fuel Prices: Prices include tax


model-print
model-print
model-print
model-print